Home   Weather   Germany   Taunusstein   Past weeks
Flag for Germany

Past Weather in Taunusstein, Hesse, Germany — Yesterday and Last 2 Weeks

Currently: 68 °F. Clear. (Weather station: Frankfurt-M-Flughafen Airport, Germany). See more current weather

Past Weather in Taunusstein — Graph

°F

Taunusstein Temperature Yesterday

Maximum temperature yesterday: 82 °F (at 1:20 pm)
Minimum temperature yesterday: 54 °F (at 4:50 am)
Average temperature yesterday: 72 °F

High & Low Weather Summary for the Past Weeks

 TemperatureHumidityPressure
High90 °F (Jun 23, 2:50 pm)100% (Jun 21, 3:20 am)30.24 "Hg (Jun 21, 3:20 am)
Low46 °F (Jun 21, 3:20 am)24% (Jul 3, 5:50 pm)29.74 "Hg (Jun 24, 2:50 pm)
Average71 °F59%29.98 "Hg
* Reported Jun 20 10:20 pm — Jul 5 10:50 pm, Taunusstein. Weather by CustomWeather, © 2022

Note: Actual official high and low records may vary slightly from our data, if they occured in-between our weather recording intervals... More about our weather records

Taunusstein Weather History for the Previous 24 Hours

Scroll right to see more
 ConditionsComfort  
Time TempWeatherWind HumidityBarometerVisibility
10:50 pm
Tue, Jul 5
70 °FClear.8 mph43%30.15 "Hg10 mi
10:20 pm72 °FPassing clouds.9 mph41%30.15 "HgN/A
9:50 pm72 °FPassing clouds.10 mph41%30.15 "HgN/A
9:20 pm73 °FSunny.13 mph38%30.15 "Hg10 mi
8:50 pm75 °FSunny.13 mph36%30.12 "Hg10 mi
8:20 pm75 °FSunny.14 mph36%30.12 "Hg10 mi
7:50 pm77 °FSunny.15 mph36%30.12 "Hg10 mi
7:20 pm79 °FSunny.14 mph34%30.12 "Hg10 mi
6:50 pm79 °FSunny.14 mph34%30.12 "Hg10 mi
6:20 pm79 °FPassing clouds.10 mph34%30.09 "HgN/A
5:50 pm81 °FPassing clouds.10 mph32%30.12 "HgN/A
5:20 pm79 °FPassing clouds.9 mph32%30.12 "HgN/A
4:50 pm81 °FSunny.6 mph30%30.12 "Hg10 mi
4:20 pm82 °FPassing clouds.8 mph26%30.12 "HgN/A
3:50 pm81 °FPassing clouds.8 mph28%30.12 "HgN/A
3:20 pm81 °FPassing clouds.10 mph28%30.12 "HgN/A
2:50 pm81 °FPassing clouds.7 mph28%30.12 "HgN/A
2:20 pm81 °FPassing clouds.10 mph30%30.12 "HgN/A
1:50 pm79 °FSunny.6 mph32%30.12 "Hg10 mi
1:20 pm82 °FPassing clouds.10 mph28%30.15 "HgN/A
12:50 pm79 °FPassing clouds.8 mph30%30.15 "HgN/A
12:20 pm77 °FPassing clouds.8 mph34%30.15 "HgN/A
11:50 am77 °FSunny.6 mph34%30.15 "Hg10 mi
11:20 am77 °FSunny.5 mph36%30.15 "Hg10 mi
10:50 am77 °FSunny.6 mph36%30.15 "Hg10 mi
10:20 am75 °FSunny.3 mph39%30.15 "Hg10 mi
9:20 am72 °FPassing clouds.5 mph44%30.15 "HgN/A
8:50 am72 °FSunny.1 mph47%30.15 "Hg10 mi
8:20 am68 °FSunny.2 mph53%30.15 "Hg10 mi
7:50 am64 °FPassing clouds.3 mph60%30.15 "HgN/A
7:20 am64 °FPassing clouds.3 mph60%30.15 "HgN/A
6:50 am61 °FSunny.2 mph68%30.12 "Hg10 mi
6:20 am57 °FSunny.1 mph72%30.12 "Hg10 mi
5:20 am54 °FClear.2 mph82%30.12 "Hg10 mi
4:50 am54 °FClear.2 mph82%30.12 "Hg10 mi
4:20 am55 °FClear.1 mph77%30.12 "Hg10 mi
3:50 am57 °FClear.2 mph72%30.12 "Hg10 mi
3:20 am57 °FClear.2 mph72%30.12 "Hg10 mi
2:50 am59 °FClear.2 mph68%30.12 "Hg10 mi
1:20 am61 °FClear.7 mph63%30.12 "Hg10 mi
12:20 am63 °FClear.5 mph59%30.09 "Hg10 mi
Weather by CustomWeather, © 2022

See weather overview